21:42
Airports
History
Links
Donate
Help keep this website running!
PayPal
Bitcoin
This page is community maintained. The information is intended for PC simulator navigation or reference.
Always use approved charts for navigation.
TLPL
St. Lucia/Hewanorra Intl
St. Lucia/Hewanorra Intl (TLPL)
Vieux Fort, Vieux Fort, Saint Lucia
(C)
Lat/Lng:13° 43' 59.5" N / 60° 57' 9.36" W
13.733195 / -60.952599
Elevation:14'ft / 4mMSL
ID / ICAO:TLPL
Runways:1
Longest:(10-28) 2,735.9m / 8,976ft Asphalt
Controlled:Yes
Distance To
Airport ID:
Airport Radio Frequencies
Ground: 121.6
Tower: 118.3
Approach: 119.8
Nearby VORs <50NM
Nearby NDBs
METARUpdated 08-16-17 21:00 GMT
Altimeter: 29.85
Visibility: 6.2 statute miles
Wind: 11 knots (130°)
Temp: 30°c 86°f
Humidity: 74.7%

METAR: TLPL 162100Z 13011KT 9999 SCT026 30/25 Q1011 NOSIG

(Powered by phpweather)
Runway 10 / 28
Dimensions:2735.9 x 45.1m 8976' x 148'ft
Surface:Asphalt
Edge Lights:High intensity
Runway 10 [A]Runway 28 [B]
Heading:090°TH 270°TH
Lat:
Lng:
13° 43' 59.51"N
60° 57' 54.95"W
13° 43' 59.49"N
60° 56' 23.76"W
ALS:MALS
User Notes and Comments
Google Map
Nearby Airports
(C) Castries/George F L Charles 20.0 NM
TLPC N 352°
(C) St. Vincent/E T Joshua 44.2 NM
TVSV (WX) SSW 203°
(C) Bequia/J F Mitchell 55.5 NM
TVSB SSW 202°
(C) Martinique/Aime Cesaire Intl 59.4 NM
TFFF (WX) N 356°
(C) Mustique 60.4 NM
TVSM SSW 194°
(C) Canouan Jetport 76.1 NM
TVSC SSW 200°
(C) Union Island Intl 84.4 NM
TVSU SSW 201°
VFR Chart
Flight Planning at SkyVector.com